Joao Pessoa, Brazil
Current Conditions -  °F | °C
As of 1:00 AM on Saturday 25 Oct 2014 (Local Time) from SBJP Reporting Station
Clear Clear  
Wind Chill: 75°   Ceiling: Unl
Heat Index: 75°   Visibility: 6mi
Dew Point: 68°   Wind: 7mph
Humidity: 78%   Direction: 110°ESE
Pressure: 29.91"   Gusts: NA
Location:  7.12°S, 34.86°W
Report Text: SBJP 250400Z 11006KT CAVOK 24/20 Q1013
Loading
Personal Weather Stations






























Interactive Weather Map
Tropical Storm Tracking
New forecast layout! Learn more

10-Day Weather Forecast

Advertisements
Track Severe Weather on mobile